createdAt,value
2022-12-17T00:01:12.154Z,97768.06
2022-12-17T00:03:58.762Z,97761.34
2022-12-17T00:06:45.116Z,97767.31
2022-12-17T00:09:31.649Z,97784.00
2022-12-17T00:12:18.324Z,97795.06
2022-12-17T00:15:05.127Z,97797.44
2022-12-17T00:17:52.689Z,97800.00
2022-12-17T00:20:41.267Z,97803.41
2022-12-17T00:23:28.398Z,97803.19
2022-12-17T00:26:15.462Z,97804.44
2022-12-17T00:29:01.832Z,97808.16
2022-12-17T00:31:49.392Z,97802.94
2022-12-17T00:34:37.705Z,97803.75
2022-12-17T00:37:24.221Z,97799.81
2022-12-17T00:40:10.625Z,97791.56
2022-12-17T00:43:08.648Z,97791.19
2022-12-17T00:45:51.252Z,97798.84
2022-12-17T00:48:38.736Z,97791.19
2022-12-17T00:51:26.634Z,97799.38
2022-12-17T00:54:13.156Z,97803.88
2022-12-17T00:57:00.233Z,97794.38
2022-12-17T00:59:46.829Z,97806.47
2022-12-17T01:02:33.446Z,97824.63
2022-12-17T01:05:20.274Z,97830.81
2022-12-17T01:08:13.787Z,97830.38
2022-12-17T01:11:00.951Z,97839.41
2022-12-17T01:13:47.187Z,97855.22
2022-12-17T01:16:33.887Z,97859.22
2022-12-17T01:19:20.492Z,97864.75
2022-12-17T01:22:07.166Z,97875.09
2022-12-17T01:24:54.696Z,97881.44
2022-12-17T01:27:42.828Z,97887.06
2022-12-17T01:30:29.955Z,97885.47
2022-12-17T01:33:21.066Z,97898.13
2022-12-17T01:36:07.748Z,97894.13
2022-12-17T01:38:54.448Z,97904.41
2022-12-17T01:41:42.518Z,97921.91
2022-12-17T01:45:11.349Z,97923.94
2022-12-17T01:48:03.029Z,97927.59
2022-12-17T01:50:55.303Z,97929.19
2022-12-17T01:53:45.090Z,97935.56
2022-12-17T01:56:32.142Z,97934.84
2022-12-17T01:59:21.208Z,97931.28
2022-12-17T02:02:08.175Z,97943.16
2022-12-17T02:04:55.233Z,97950.75
2022-12-17T02:08:04.608Z,97957.00
2022-12-17T02:11:03.589Z,97967.34
2022-12-17T02:13:55.694Z,97964.94
2022-12-17T02:16:53.000Z,97967.88
2022-12-17T02:19:58.155Z,97976.97
2022-12-17T02:22:58.943Z,97981.81
2022-12-17T02:25:58.043Z,97983.84
2022-12-17T02:28:49.662Z,97985.75
2022-12-17T02:31:37.944Z,97992.44
2022-12-17T02:34:24.866Z,97992.00
2022-12-17T02:37:11.311Z,97992.72
2022-12-17T02:39:57.982Z,97992.28
2022-12-17T02:42:46.654Z,97991.84
2022-12-17T02:45:35.968Z,97991.03
2022-12-17T02:48:24.740Z,97992.94
2022-12-17T02:51:14.519Z,97992.56
2022-12-17T02:54:03.539Z,97998.09
2022-12-17T02:56:50.137Z,98012.31
2022-12-17T03:17:47.979Z,97996.06
2022-12-17T03:33:12.802Z,98036.16
2022-12-17T03:35:59.501Z,98047.94
2022-12-17T03:38:46.239Z,98051.88
2022-12-17T03:41:32.951Z,98051.53
2022-12-17T03:49:36.116Z,98067.19
2022-12-17T03:52:22.763Z,98069.09
2022-12-17T03:55:09.377Z,98076.81
2022-12-17T03:57:55.646Z,98078.59
2022-12-17T04:00:44.403Z,98082.06
2022-12-17T04:13:17.014Z,98095.16
2022-12-17T04:16:03.819Z,98098.22
2022-12-17T04:18:50.459Z,98105.19
2022-12-17T04:21:37.044Z,98101.25
2022-12-17T04:24:24.161Z,98120.63
2022-12-17T04:27:10.761Z,98124.56
2022-12-17T04:29:58.442Z,98127.41
2022-12-17T04:32:44.980Z,98134.03
2022-12-17T04:48:21.540Z,98134.19
2022-12-17T04:51:08.303Z,98134.47
2022-12-17T04:53:54.841Z,98140.00
2022-12-17T04:56:40.641Z,98141.25
2022-12-17T04:59:27.243Z,98144.81
2022-12-17T05:02:15.034Z,98148.84
2022-12-17T05:10:32.033Z,98144.59
2022-12-17T05:13:20.219Z,98150.75
2022-12-17T05:16:09.244Z,98153.41
2022-12-17T05:18:55.980Z,98158.53
2022-12-17T05:21:42.507Z,98159.50
2022-12-17T05:24:28.963Z,98171.72
2022-12-17T05:27:17.276Z,98162.63
2022-12-17T05:30:03.832Z,98179.66
2022-12-17T05:32:51.037Z,98186.47
2022-12-17T05:35:37.481Z,98198.44
2022-12-17T05:38:26.127Z,98201.63
2022-12-17T05:41:15.136Z,98211.53
2022-12-17T05:44:03.919Z,98217.53
2022-12-17T05:46:50.827Z,98221.19
2022-12-17T05:49:37.199Z,98230.75
2022-12-17T05:52:24.132Z,98237.19
2022-12-17T05:55:10.816Z,98235.94
2022-12-17T05:57:57.398Z,98242.72
2022-12-17T06:00:45.523Z,98244.13
2022-12-17T06:03:32.217Z,98254.09
2022-12-17T06:06:18.906Z,98266.00
2022-12-17T06:09:06.626Z,98267.25
2022-12-17T06:11:55.613Z,98264.94
2022-12-17T06:14:46.162Z,98266.00
2022-12-17T06:17:34.072Z,98269.09
2022-12-17T06:20:20.600Z,98273.03
2022-12-17T06:23:17.487Z,98289.91
2022-12-17T06:26:04.060Z,98302.94
2022-12-17T06:28:50.779Z,98303.75
2022-12-17T06:31:37.787Z,98309.28
2022-12-17T06:34:31.881Z,98314.81
2022-12-17T06:37:18.291Z,98322.66
2022-12-17T06:40:04.975Z,98328.66
2022-12-17T06:42:51.979Z,98324.47
2022-12-17T06:45:40.927Z,98321.44
2022-12-17T06:48:28.106Z,98339.56
2022-12-17T06:51:16.032Z,98344.28
2022-12-17T06:54:05.141Z,98345.34
2022-12-17T06:56:54.210Z,98346.59
2022-12-17T06:59:40.938Z,98341.06
2022-12-17T07:02:29.429Z,98349.13
2022-12-17T07:05:17.272Z,98357.19
2022-12-17T07:08:05.734Z,98368.47
2022-12-17T07:10:52.316Z,98386.69
2022-12-17T07:13:39.304Z,98389.19
2022-12-17T07:16:26.372Z,98399.56
2022-12-17T07:19:13.011Z,98396.53
2022-12-17T07:21:59.314Z,98405.50
2022-12-17T07:24:47.778Z,98411.22
2022-12-17T07:27:34.645Z,98413.66
2022-12-17T07:30:21.508Z,98408.91
2022-12-17T07:33:18.202Z,98413.50
2022-12-17T07:36:05.808Z,98428.72
2022-12-17T07:38:52.860Z,98429.22
2022-12-17T07:41:41.259Z,98431.41
2022-12-17T07:44:28.053Z,98439.09
2022-12-17T07:47:14.639Z,98445.91
2022-12-17T07:50:01.364Z,98450.47
2022-12-17T07:52:47.929Z,98448.84
2022-12-17T07:55:36.008Z,98452.19
2022-12-17T07:58:27.582Z,98463.00
2022-12-17T08:01:17.842Z,98475.06
2022-12-17T08:04:04.790Z,98482.31
2022-12-17T08:06:53.896Z,98478.03
2022-12-17T08:09:43.307Z,98483.69
2022-12-17T08:12:29.947Z,98484.59
2022-12-17T08:15:17.818Z,98489.06
2022-12-17T08:18:03.831Z,98497.63
2022-12-17T08:20:52.185Z,98511.16
2022-12-17T08:23:39.004Z,98518.94
2022-12-17T08:26:25.771Z,98520.63
2022-12-17T08:29:12.351Z,98524.56
2022-12-17T08:32:00.431Z,98516.50
2022-12-17T08:34:47.635Z,98533.34
2022-12-17T08:37:34.117Z,98533.25
2022-12-17T08:40:20.750Z,98528.00
2022-12-17T08:43:07.385Z,98536.03
2022-12-17T08:45:53.833Z,98537.56
2022-12-17T08:48:41.999Z,98548.38
2022-12-17T08:51:28.882Z,98550.69
2022-12-17T08:54:15.419Z,98558.88
2022-12-17T08:57:02.181Z,98572.03
2022-12-17T09:00:03.337Z,98566.94
2022-12-17T09:02:50.166Z,98568.97
2022-12-17T09:05:38.204Z,98569.72
2022-12-17T09:08:26.244Z,98581.31
2022-12-17T09:11:12.862Z,98590.19
2022-12-17T09:14:01.385Z,98593.88
2022-12-17T09:16:48.693Z,98601.47
2022-12-17T09:19:50.094Z,98600.13
2022-12-17T09:22:37.900Z,98618.69
2022-12-17T09:25:24.626Z,98628.63
2022-12-17T09:28:10.922Z,98635.97
2022-12-17T09:30:57.568Z,98636.50
2022-12-17T09:33:44.133Z,98643.16
2022-12-17T09:36:30.824Z,98646.03
2022-12-17T09:39:18.970Z,98643.16
2022-12-17T09:42:15.942Z,98655.78
2022-12-17T09:45:09.676Z,98652.47
2022-12-17T09:48:08.909Z,98659.44
2022-12-17T09:50:55.886Z,98661.50
2022-12-17T09:53:54.825Z,98657.47
2022-12-17T09:56:46.984Z,98653.72
2022-12-17T09:59:40.099Z,98668.41
2022-12-17T10:02:33.922Z,98657.75
2022-12-17T10:05:22.966Z,98654.06
2022-12-17T10:08:11.652Z,98656.13
2022-12-17T10:11:13.122Z,98659.44
2022-12-17T10:14:01.110Z,98672.34
2022-12-17T10:16:56.645Z,98671.72
2022-12-17T10:19:49.580Z,98684.97
2022-12-17T10:22:39.675Z,98692.75
2022-12-17T10:25:32.919Z,98690.88
2022-12-17T10:28:21.746Z,98680.94
2022-12-17T10:31:10.248Z,98670.53
2022-12-17T10:33:59.474Z,98687.22
2022-12-17T10:36:55.627Z,98689.97
2022-12-17T10:39:44.223Z,98703.69
2022-12-17T10:42:40.663Z,98701.81
2022-12-17T10:45:43.228Z,98713.19
2022-12-17T10:48:42.882Z,98717.50
2022-12-17T10:51:40.214Z,98723.97
2022-12-17T10:54:42.616Z,98728.09
2022-12-17T10:57:45.809Z,98727.09
2022-12-17T11:00:49.733Z,98725.84
2022-12-17T11:03:50.556Z,98721.00
2022-12-17T11:06:45.824Z,98719.66
2022-12-17T11:09:45.034Z,98718.47
2022-12-17T11:12:34.750Z,98718.59
2022-12-17T11:15:34.867Z,98723.47
2022-12-17T11:18:23.229Z,98731.19
2022-12-17T11:21:23.044Z,98727.72
2022-12-17T11:24:22.024Z,98732.56
2022-12-17T11:27:22.266Z,98738.69
2022-12-17T11:30:10.220Z,98740.00
2022-12-17T11:33:25.469Z,98737.09
2022-12-17T11:36:23.021Z,98747.19
2022-12-17T11:39:26.101Z,98751.91
2022-12-17T11:42:23.275Z,98755.28
2022-12-17T11:45:18.917Z,98760.09
2022-12-17T11:48:13.160Z,98755.06
2022-12-17T11:51:11.289Z,98754.09
2022-12-17T11:54:15.259Z,98753.28
2022-12-17T11:57:08.786Z,98762.75
2022-12-17T12:00:06.204Z,98759.81
2022-12-17T12:03:12.434Z,98773.03
2022-12-17T12:06:09.327Z,98776.16
2022-12-17T12:09:18.102Z,98770.00
2022-12-17T12:12:19.916Z,98767.13
2022-12-17T12:15:20.646Z,98763.97
2022-12-17T12:18:12.769Z,98769.78
2022-12-17T12:21:28.201Z,98768.63
2022-12-17T12:24:34.161Z,98774.88
2022-12-17T12:27:42.375Z,98773.84
2022-12-17T12:30:34.462Z,98779.75
2022-12-17T12:33:34.725Z,98775.97
2022-12-17T12:36:24.720Z,98776.19
2022-12-17T12:39:15.170Z,98781.44
2022-12-17T12:42:11.994Z,98781.59
2022-12-17T12:45:08.817Z,98793.00
2022-12-17T12:48:06.022Z,98797.31
2022-12-17T12:51:04.378Z,98805.56
2022-12-17T12:53:50.367Z,98796.78
2022-12-17T12:56:48.462Z,98805.09
2022-12-17T12:59:46.209Z,98790.13
2022-12-17T13:02:47.720Z,98795.78
2022-12-17T13:05:35.644Z,98800.16
2022-12-17T13:08:17.145Z,98794.88
2022-12-17T13:10:46.069Z,98803.03
2022-12-17T13:13:28.915Z,98808.78
2022-12-17T13:16:05.226Z,98821.50
2022-12-17T13:18:37.126Z,98831.97
2022-12-17T13:21:25.470Z,98830.38
2022-12-17T13:23:54.562Z,98842.31
2022-12-17T13:26:26.688Z,98857.63
2022-12-17T13:29:20.882Z,98858.94
2022-12-17T13:32:07.165Z,98862.34
2022-12-17T13:34:52.112Z,98864.06
2022-12-17T13:37:33.427Z,98875.16
2022-12-17T13:40:21.495Z,98877.84
2022-12-17T13:42:52.226Z,98896.47
2022-12-17T13:45:26.298Z,98890.59
2022-12-17T13:47:59.533Z,98899.41
2022-12-17T13:50:34.766Z,98899.38
2022-12-17T13:53:12.733Z,98900.09
2022-12-17T13:55:41.900Z,98910.00
2022-12-17T13:58:24.630Z,98912.38
2022-12-17T14:01:05.965Z,98914.06
2022-12-17T14:06:35.790Z,98921.38
2022-12-17T14:09:05.771Z,98930.28
2022-12-17T14:11:55.778Z,98931.81
2022-12-17T14:14:34.260Z,98942.69
2022-12-17T14:17:05.843Z,98955.25
2022-12-17T14:19:38.041Z,98956.88
2022-12-17T14:22:07.550Z,98958.56
2022-12-17T14:24:36.871Z,98965.50
2022-12-17T14:27:06.003Z,98973.28
2022-12-17T14:29:35.101Z,98971.53
2022-12-17T14:32:24.737Z,98979.28
2022-12-17T14:35:00.424Z,98982.59
2022-12-17T14:37:31.124Z,98985.31
2022-12-17T14:40:06.314Z,98982.72
2022-12-17T14:42:38.330Z,98982.91
2022-12-17T14:45:23.838Z,98980.84
2022-12-17T14:47:58.478Z,98985.09
2022-12-17T14:50:35.145Z,98983.88
2022-12-17T14:53:22.320Z,98986.63
2022-12-17T14:55:56.311Z,98988.88
2022-12-17T14:58:27.733Z,98990.53
2022-12-17T15:01:05.914Z,98996.06
2022-12-17T15:03:40.278Z,99004.00
2022-12-17T15:06:14.580Z,99004.44
2022-12-17T15:08:46.933Z,99005.94
2022-12-17T15:11:20.311Z,99016.66
2022-12-17T15:13:54.589Z,99027.81
2022-12-17T15:16:25.648Z,99028.41
2022-12-17T15:18:54.985Z,99020.66
2022-12-17T15:21:26.565Z,99029.38
2022-12-17T15:23:56.471Z,99034.78
2022-12-17T15:26:25.681Z,99044.06
2022-12-17T15:28:55.195Z,99044.75
2022-12-17T15:31:27.590Z,99037.75
2022-12-17T15:33:59.580Z,99056.81
2022-12-17T15:36:31.926Z,99046.22
2022-12-17T15:39:01.348Z,99059.91
2022-12-17T15:41:48.051Z,99056.81
2022-12-17T15:44:20.628Z,99051.94
2022-12-17T15:46:49.843Z,99063.31
2022-12-17T15:49:19.181Z,99070.75
2022-12-17T15:51:50.298Z,99074.28
2022-12-17T15:54:19.384Z,99072.19
2022-12-17T15:56:54.720Z,99072.84
2022-12-17T15:59:24.084Z,99080.13
2022-12-17T16:01:53.473Z,99083.16
2022-12-17T16:04:25.218Z,99084.78
2022-12-17T16:06:56.215Z,99087.69
2022-12-17T16:09:27.203Z,99102.28
2022-12-17T16:11:56.781Z,99106.28
2022-12-17T16:14:26.205Z,99110.81
2022-12-17T16:16:55.203Z,99100.09
2022-12-17T16:19:24.251Z,99106.91
2022-12-17T16:21:53.288Z,99101.53
2022-12-17T16:24:23.704Z,99115.31
2022-12-17T16:26:52.808Z,99112.38
2022-12-17T16:29:21.994Z,99121.25
2022-12-17T16:31:51.433Z,99123.84
2022-12-17T16:34:20.537Z,99121.88
2022-12-17T16:36:49.705Z,99139.25
2022-12-17T16:39:20.704Z,99137.00
2022-12-17T16:41:51.201Z,99152.03
2022-12-17T16:44:20.592Z,99156.25
2022-12-17T16:46:50.132Z,99152.50
2022-12-17T16:49:21.859Z,99159.13
2022-12-17T16:51:55.868Z,99158.50
2022-12-17T16:54:30.714Z,99172.41
2022-12-17T16:57:04.189Z,99168.84
2022-12-17T16:59:33.255Z,99165.66
2022-12-17T17:02:03.942Z,99167.72
2022-12-17T17:04:33.256Z,99175.66
2022-12-17T17:07:02.424Z,99181.19
2022-12-17T17:09:31.741Z,99177.09
2022-12-17T17:12:03.354Z,99180.28
2022-12-17T17:14:33.973Z,99177.16
2022-12-17T17:17:03.077Z,99185.28
2022-12-17T17:19:33.991Z,99192.56
2022-12-17T17:22:03.637Z,99202.59
2022-12-17T17:24:33.042Z,99201.59
2022-12-17T17:27:02.147Z,99209.97
2022-12-17T17:29:31.569Z,99216.59
2022-12-17T17:32:10.216Z,99225.97
2022-12-17T17:34:40.386Z,99223.97
2022-12-17T17:37:09.588Z,99235.03
2022-12-17T17:39:38.703Z,99233.78
2022-12-17T17:42:08.301Z,99240.31
2022-12-17T17:44:38.387Z,99237.19
2022-12-17T17:47:09.461Z,99236.69
2022-12-17T17:49:38.886Z,99244.44
2022-12-17T17:52:10.404Z,99248.91
2022-12-17T17:54:42.615Z,99258.31
2022-12-17T17:57:12.241Z,99252.38
2022-12-17T17:59:41.858Z,99258.13
2022-12-17T18:02:14.027Z,99265.56
2022-12-17T18:04:43.554Z,99271.38
2022-12-17T18:07:28.852Z,99276.66
2022-12-17T18:09:59.968Z,99280.13
2022-12-17T18:12:46.574Z,99281.34
2022-12-17T18:15:17.484Z,99284.69
2022-12-17T18:17:52.790Z,99295.78
2022-12-17T18:20:21.835Z,99292.34
2022-12-17T18:22:51.505Z,99297.47
2022-12-17T18:25:20.686Z,99289.69
2022-12-17T18:27:52.508Z,99297.47
2022-12-17T18:30:21.945Z,99296.03
2022-12-17T18:32:52.441Z,99294.19
2022-12-17T18:35:21.583Z,99304.56
2022-12-17T18:37:50.809Z,99309.38
2022-12-17T18:40:20.137Z,99318.63
2022-12-17T18:43:06.687Z,99322.66
2022-12-17T18:45:38.792Z,99331.00
2022-12-17T18:48:09.466Z,99329.78
2022-12-17T18:50:38.996Z,99331.41
2022-12-17T18:53:08.867Z,99333.66
2022-12-17T18:55:40.563Z,99338.16
2022-12-17T18:58:10.494Z,99343.22
2022-12-17T19:00:40.010Z,99351.38
2022-12-17T19:03:10.536Z,99352.41
2022-12-17T19:05:45.810Z,99358.31
2022-12-17T19:08:16.422Z,99360.00
2022-12-17T19:10:45.494Z,99365.38
2022-12-17T19:13:14.629Z,99366.06
2022-12-17T19:15:43.786Z,99373.28
2022-12-17T19:18:14.271Z,99374.91
2022-12-17T19:20:43.338Z,99372.81
2022-12-17T19:23:12.491Z,99385.03
2022-12-17T19:25:41.479Z,99395.22
2022-12-17T19:28:10.566Z,99389.72
2022-12-17T19:30:39.584Z,99401.34
2022-12-17T19:33:08.617Z,99399.50
2022-12-17T19:35:39.117Z,99392.81
2022-12-17T19:38:08.100Z,99405.56
2022-12-17T19:40:37.167Z,99405.44
2022-12-17T19:43:06.413Z,99420.13
2022-12-17T19:45:35.560Z,99423.50
2022-12-17T19:48:05.104Z,99425.28
2022-12-17T19:50:38.729Z,99427.38
2022-12-17T19:53:07.952Z,99423.28
2022-12-17T19:55:37.044Z,99421.06
2022-12-17T19:58:06.116Z,99426.91
2022-12-17T20:00:36.896Z,99426.97
2022-12-17T20:03:07.422Z,99425.94
2022-12-17T20:05:38.091Z,99429.88
2022-12-17T20:08:07.489Z,99431.47
2022-12-17T20:10:36.498Z,99433.22
2022-12-17T20:13:06.243Z,99437.34
2022-12-17T20:15:35.521Z,99446.25
2022-12-17T20:18:04.939Z,99442.28
2022-12-17T20:20:34.002Z,99442.34
2022-12-17T20:23:04.528Z,99461.44
2022-12-17T20:25:33.591Z,99452.16
2022-12-17T20:28:03.265Z,99465.84
2022-12-17T20:30:32.625Z,99461.53
2022-12-17T20:33:01.640Z,99467.03
2022-12-17T20:35:30.915Z,99465.69
2022-12-17T20:37:59.938Z,99461.66
2022-12-17T20:40:30.700Z,99464.00
2022-12-17T20:42:59.788Z,99472.84
2022-12-17T20:45:29.107Z,99464.13
2022-12-17T20:47:58.141Z,99467.53
2022-12-17T20:50:27.531Z,99468.53
2022-12-17T20:53:02.949Z,99473.09
2022-12-17T20:55:33.667Z,99482.41
2022-12-17T20:58:02.741Z,99478.72
2022-12-17T21:00:32.125Z,99477.31
2022-12-17T21:03:01.540Z,99478.91
2022-12-17T21:05:34.450Z,99481.44
2022-12-17T21:08:03.868Z,99495.66
2022-12-17T21:10:35.017Z,99498.44
2022-12-17T21:13:21.358Z,99496.00
2022-12-17T21:15:51.017Z,99498.41
2022-12-17T21:18:20.036Z,99509.66
2022-12-17T21:20:58.158Z,99510.81
2022-12-17T21:23:28.611Z,99510.53
2022-12-17T21:26:08.769Z,99509.72
2022-12-17T21:28:42.369Z,99503.75
2022-12-17T21:31:18.547Z,99519.44
2022-12-17T21:33:48.693Z,99515.56
2022-12-17T21:36:20.706Z,99526.78
2022-12-17T21:38:51.146Z,99525.59
2022-12-17T21:41:24.869Z,99530.28
2022-12-17T21:43:55.292Z,99533.16
2022-12-17T21:46:26.127Z,99531.91
2022-12-17T21:48:57.174Z,99542.06
2022-12-17T21:51:27.588Z,99540.72
2022-12-17T21:53:59.600Z,99543.31
2022-12-17T21:56:30.773Z,99544.75
2022-12-17T21:59:02.012Z,99548.66
2022-12-17T22:01:34.565Z,99557.78
2022-12-17T22:04:06.342Z,99553.44
2022-12-17T22:06:43.089Z,99559.22
2022-12-17T22:09:21.752Z,99565.13
2022-12-17T22:12:15.287Z,99559.56
2022-12-17T22:14:44.713Z,99567.75
2022-12-17T22:17:13.719Z,99564.38
2022-12-17T22:19:43.060Z,99573.94
2022-12-17T22:22:12.147Z,99571.44
2022-12-17T22:24:41.233Z,99579.19
2022-12-17T22:27:11.766Z,99580.84
2022-12-17T22:29:58.073Z,99580.38
2022-12-17T22:32:44.677Z,99580.25
2022-12-17T22:36:38.237Z,99583.91
2022-12-17T22:41:04.148Z,99586.56
2022-12-17T22:44:35.922Z,99576.28
2022-12-17T22:44:44.910Z,99580.41
2022-12-17T22:46:32.992Z,99584.13
2022-12-17T22:49:02.146Z,99590.66
2022-12-17T22:51:39.863Z,99583.59
2022-12-17T22:54:10.864Z,99589.59
2022-12-17T22:57:10.750Z,99590.66
2022-12-17T22:59:33.505Z,99580.84
2022-12-17T23:02:02.681Z,99580.84
2022-12-17T23:04:31.741Z,99581.94
2022-12-17T23:07:00.908Z,99585.88
2022-12-17T23:09:30.040Z,99582.59
2022-12-17T23:12:19.047Z,99601.50
2022-12-17T23:14:49.650Z,99597.91
2022-12-17T23:17:18.690Z,99604.13
2022-12-17T23:19:47.799Z,99603.25
2022-12-17T23:22:21.931Z,99605.03
2022-12-17T23:24:51.526Z,99603.44
2022-12-17T23:27:20.698Z,99598.94
2022-12-17T23:29:51.403Z,99605.44
2022-12-17T23:32:20.561Z,99604.78
2022-12-17T23:34:49.801Z,99598.75
2022-12-17T23:37:18.939Z,99601.66
2022-12-17T23:39:48.294Z,99594.84
2022-12-17T23:42:17.568Z,99600.59
2022-12-17T23:44:46.688Z,99606.91
2022-12-17T23:47:17.219Z,99608.72
2022-12-17T23:49:46.263Z,99606.91
2022-12-17T23:52:15.350Z,99612.91
2022-12-17T23:54:44.439Z,99615.03
2022-12-17T23:57:13.452Z,99615.44
2022-12-17T23:59:42.740Z,99615.50
